createdAt,value
2018-11-21T00:00:20.608Z,2.30
2018-11-21T00:02:49.764Z,2.30
2018-11-21T00:05:18.371Z,2.30
2018-11-21T00:07:46.769Z,2.30
2018-11-21T00:10:15.201Z,2.20
2018-11-21T00:12:47.062Z,2.30
2018-11-21T00:15:15.470Z,2.30
2018-11-21T00:17:43.935Z,2.30
2018-11-21T00:20:12.400Z,2.30
2018-11-21T00:22:40.893Z,2.20
2018-11-21T00:25:09.576Z,2.20
2018-11-21T00:27:38.093Z,2.20
2018-11-21T00:30:09.298Z,2.20
2018-11-21T00:32:37.730Z,2.20
2018-11-21T00:35:07.894Z,2.20
2018-11-21T00:37:36.400Z,2.20
2018-11-21T00:40:08.005Z,2.20
2018-11-21T00:42:36.436Z,2.20
2018-11-21T00:45:11.654Z,2.20
2018-11-21T00:47:40.390Z,2.20
2018-11-21T00:50:08.855Z,2.30
2018-11-21T00:52:37.512Z,2.30
2018-11-21T00:55:07.113Z,2.30
2018-11-21T00:57:35.726Z,2.40
2018-11-21T01:00:12.754Z,2.30
2018-11-21T01:02:41.662Z,2.30
2018-11-21T01:05:10.092Z,2.30
2018-11-21T01:07:38.516Z,2.30
2018-11-21T01:10:07.403Z,2.40
2018-11-21T01:12:35.833Z,2.30
2018-11-21T01:15:04.445Z,2.40
2018-11-21T01:17:32.821Z,2.30
2018-11-21T01:20:01.663Z,2.30
2018-11-21T01:22:30.089Z,2.20
2018-11-21T01:24:58.545Z,2.10
2018-11-21T01:27:27.357Z,2.10
2018-11-21T01:29:55.411Z,2.10
2018-11-21T01:32:24.148Z,2.20
2018-11-21T01:34:52.638Z,2.20
2018-11-21T01:37:21.054Z,2.20
2018-11-21T01:39:49.518Z,2.30
2018-11-21T01:42:17.993Z,2.20
2018-11-21T01:44:46.456Z,2.20
2018-11-21T01:47:14.913Z,2.20
2018-11-21T01:49:43.293Z,2.20
2018-11-21T01:52:12.224Z,2.10
2018-11-21T01:54:40.688Z,2.00
2018-11-21T01:57:09.135Z,2.00
2018-11-21T01:59:37.557Z,2.10
2018-11-21T02:02:06.239Z,2.10
2018-11-21T02:04:34.685Z,2.00
2018-11-21T02:07:03.109Z,1.90
2018-11-21T02:09:31.531Z,2.00
2018-11-21T02:12:00.002Z,1.90
2018-11-21T02:14:28.446Z,1.90
2018-11-21T02:16:57.031Z,2.00
2018-11-21T02:19:25.514Z,2.00
2018-11-21T02:21:53.941Z,2.00
2018-11-21T02:24:22.423Z,2.00
2018-11-21T02:26:50.825Z,2.00
2018-11-21T02:29:19.610Z,1.90
2018-11-21T02:31:48.125Z,1.90
2018-11-21T02:34:16.873Z,1.90
2018-11-21T02:36:45.310Z,1.90
2018-11-21T02:39:13.724Z,1.80
2018-11-21T02:41:42.184Z,1.80
2018-11-21T02:44:11.032Z,1.80
2018-11-21T02:46:39.486Z,1.70
2018-11-21T02:49:07.902Z,1.80
2018-11-21T02:51:36.334Z,1.80
2018-11-21T02:54:08.268Z,1.90
2018-11-21T02:57:13.160Z,1.90
2018-11-21T02:59:41.558Z,1.90
2018-11-21T03:02:10.053Z,1.90
2018-11-21T03:04:38.717Z,1.90
2018-11-21T03:07:07.265Z,1.80
2018-11-21T03:09:36.218Z,1.80
2018-11-21T03:12:05.494Z,1.80
2018-11-21T03:14:33.962Z,1.80
2018-11-21T03:17:02.662Z,1.80
2018-11-21T03:19:31.707Z,1.80
2018-11-21T03:22:00.090Z,1.70
2018-11-21T03:24:29.112Z,1.50
2018-11-21T03:26:57.551Z,1.50
2018-11-21T03:29:26.415Z,1.50
2018-11-21T03:31:54.873Z,1.50
2018-11-21T03:34:23.265Z,1.50
2018-11-21T03:36:52.951Z,1.50
2018-11-21T03:39:22.562Z,1.60
2018-11-21T03:41:51.004Z,1.70
2018-11-21T03:44:19.481Z,1.80
2018-11-21T03:46:48.894Z,1.80
2018-11-21T03:49:17.570Z,1.70
2018-11-21T03:51:46.173Z,1.70
2018-11-21T03:54:14.616Z,1.70
2018-11-21T03:56:43.049Z,1.70
2018-11-21T03:59:11.490Z,1.70
2018-11-21T04:01:40.219Z,1.70
2018-11-21T04:04:09.211Z,1.60
2018-11-21T04:06:37.804Z,1.60
2018-11-21T04:09:13.538Z,1.50
2018-11-21T04:11:41.943Z,1.60
2018-11-21T04:14:10.891Z,1.60
2018-11-21T04:16:39.347Z,1.60
2018-11-21T04:19:07.767Z,1.60
2018-11-21T04:21:36.210Z,1.60
2018-11-21T04:24:04.667Z,1.60
2018-11-21T04:26:33.090Z,1.60
2018-11-21T04:29:01.577Z,1.60
2018-11-21T04:31:30.071Z,1.60
2018-11-21T04:33:58.610Z,1.50
2018-11-21T04:36:27.482Z,1.60
2018-11-21T04:38:55.893Z,1.60
2018-11-21T04:41:24.797Z,1.60
2018-11-21T04:43:53.272Z,1.60
2018-11-21T04:46:21.762Z,1.60
2018-11-21T04:48:50.183Z,1.60
2018-11-21T04:51:18.616Z,1.60
2018-11-21T04:53:47.078Z,1.50
2018-11-21T04:56:15.520Z,1.60
2018-11-21T04:58:44.001Z,1.60
2018-11-21T05:01:12.447Z,1.70
2018-11-21T05:03:40.930Z,1.50
2018-11-21T05:06:09.347Z,1.50
2018-11-21T05:08:38.054Z,1.60
2018-11-21T05:11:06.520Z,1.60
2018-11-21T05:13:34.959Z,1.70
2018-11-21T05:16:03.561Z,1.70
2018-11-21T05:18:31.990Z,1.70
2018-11-21T05:21:00.383Z,1.70
2018-11-21T05:23:29.215Z,1.70
2018-11-21T05:25:57.728Z,1.80
2018-11-21T05:28:26.174Z,1.80
2018-11-21T05:30:54.762Z,1.70
2018-11-21T05:33:24.659Z,1.80
2018-11-21T05:35:53.090Z,1.80
2018-11-21T05:38:21.551Z,1.80
2018-11-21T05:40:50.145Z,1.80
2018-11-21T05:43:18.579Z,1.80
2018-11-21T05:45:47.018Z,1.80
2018-11-21T05:48:15.494Z,1.80
2018-11-21T05:50:43.941Z,1.80
2018-11-21T05:53:12.850Z,1.80
2018-11-21T05:55:41.274Z,1.80
2018-11-21T05:58:09.696Z,1.80
2018-11-21T06:00:38.111Z,1.80
2018-11-21T06:03:06.583Z,1.80
2018-11-21T06:05:35.065Z,1.80
2018-11-21T06:08:03.493Z,1.80
2018-11-21T06:10:31.956Z,1.80
2018-11-21T06:13:00.369Z,1.80
2018-11-21T06:15:28.819Z,1.80
2018-11-21T06:17:57.210Z,1.90
2018-11-21T06:20:26.001Z,1.90
2018-11-21T06:22:54.866Z,1.80
2018-11-21T06:25:23.316Z,1.90
2018-11-21T06:27:52.147Z,1.90
2018-11-21T06:30:20.619Z,1.90
2018-11-21T06:32:50.022Z,1.90
2018-11-21T06:35:18.479Z,1.90
2018-11-21T06:37:46.979Z,2.00
2018-11-21T06:40:16.303Z,1.90
2018-11-21T06:42:55.010Z,1.90
2018-11-21T06:45:25.362Z,1.90
2018-11-21T06:47:54.327Z,2.00
2018-11-21T06:50:22.975Z,1.90
2018-11-21T06:52:51.909Z,1.90
2018-11-21T06:55:20.345Z,1.90
2018-11-21T06:57:48.867Z,1.90
2018-11-21T07:00:17.344Z,1.90
2018-11-21T07:02:45.791Z,2.00
2018-11-21T07:05:14.284Z,2.00
2018-11-21T07:07:43.114Z,2.00
2018-11-21T07:10:13.856Z,2.00
2018-11-21T07:12:42.980Z,2.00
2018-11-21T07:15:11.433Z,2.00
2018-11-21T07:17:39.895Z,2.10
2018-11-21T07:20:10.642Z,2.10
2018-11-21T07:22:39.342Z,2.10
2018-11-21T07:25:13.729Z,2.10
2018-11-21T07:27:42.207Z,2.10
2018-11-21T07:30:12.706Z,2.10
2018-11-21T07:32:41.551Z,2.10
2018-11-21T07:35:10.322Z,2.20
2018-11-21T07:37:39.722Z,2.20
2018-11-21T07:40:09.690Z,2.20
2018-11-21T07:42:38.130Z,2.20
2018-11-21T07:45:13.228Z,2.20
2018-11-21T07:47:42.300Z,2.20
2018-11-21T07:50:21.684Z,2.20
2018-11-21T07:52:50.130Z,2.20
2018-11-21T07:55:18.624Z,2.20
2018-11-21T07:57:48.850Z,2.20
2018-11-21T08:01:00.567Z,2.20
2018-11-21T08:03:30.916Z,2.20
2018-11-21T08:06:02.132Z,2.30
2018-11-21T08:08:55.665Z,2.20
2018-11-21T08:11:41.950Z,2.30
2018-11-21T08:14:28.112Z,2.20
2018-11-21T08:17:14.665Z,2.30
2018-11-21T08:20:04.980Z,2.30
2018-11-21T08:22:51.345Z,2.30
2018-11-21T08:25:41.643Z,2.30
2018-11-21T08:28:27.878Z,2.30
2018-11-21T08:30:56.348Z,2.30
2018-11-21T08:33:24.821Z,2.30
2018-11-21T08:35:53.287Z,2.30
2018-11-21T08:38:21.773Z,2.40
2018-11-21T08:40:50.295Z,2.40
2018-11-21T08:43:18.863Z,2.40
2018-11-21T08:45:47.483Z,2.50
2018-11-21T08:48:16.890Z,2.50
2018-11-21T08:50:45.344Z,2.50
2018-11-21T08:53:13.793Z,2.50
2018-11-21T08:55:42.243Z,2.50
2018-11-21T08:58:10.725Z,2.50
2018-11-21T09:00:39.180Z,2.50
2018-11-21T09:03:08.053Z,2.60
2018-11-21T09:05:36.522Z,2.50
2018-11-21T09:08:06.755Z,2.50
2018-11-21T09:10:38.322Z,2.60
2018-11-21T09:13:07.134Z,2.60
2018-11-21T09:15:35.564Z,2.60
2018-11-21T09:18:06.866Z,2.60
2018-11-21T09:20:35.335Z,2.70
2018-11-21T09:23:03.793Z,2.70
2018-11-21T09:25:32.198Z,2.70
2018-11-21T09:28:00.742Z,2.70
2018-11-21T09:30:29.354Z,2.80
2018-11-21T09:32:58.541Z,2.80
2018-11-21T09:35:26.971Z,2.80
2018-11-21T09:37:55.804Z,2.80
2018-11-21T09:40:24.468Z,2.80
2018-11-21T09:42:54.440Z,2.80
2018-11-21T09:45:23.581Z,2.80
2018-11-21T09:47:52.048Z,2.80
2018-11-21T09:50:23.517Z,2.80
2018-11-21T09:52:51.121Z,2.80
2018-11-21T09:55:19.864Z,2.90
2018-11-21T09:57:48.346Z,3.00
2018-11-21T10:00:54.470Z,3.00
2018-11-21T10:03:25.328Z,3.00
2018-11-21T10:06:29.851Z,3.00
2018-11-21T10:09:00.216Z,3.00
2018-11-21T10:11:29.404Z,3.10
2018-11-21T10:13:57.988Z,3.10
2018-11-21T10:16:26.415Z,3.10
2018-11-21T10:18:56.577Z,3.10
2018-11-21T10:21:26.916Z,3.20
2018-11-21T10:23:55.349Z,3.20
2018-11-21T10:26:23.818Z,3.20
2018-11-21T10:28:52.953Z,3.30
2018-11-21T10:31:21.896Z,3.30
2018-11-21T10:33:50.536Z,3.30
2018-11-21T10:36:18.962Z,3.30
2018-11-21T10:38:47.418Z,3.40
2018-11-21T10:41:15.840Z,3.40
2018-11-21T10:43:44.270Z,3.50
2018-11-21T10:46:13.724Z,3.50
2018-11-21T10:48:42.177Z,3.50
2018-11-21T10:51:11.152Z,3.50
2018-11-21T10:53:39.641Z,3.50
2018-11-21T10:56:08.903Z,3.60
2018-11-21T10:58:37.416Z,3.60
2018-11-21T11:01:43.285Z,3.70
2018-11-21T11:04:32.281Z,3.70
2018-11-21T11:07:33.743Z,3.70
2018-11-21T11:10:26.208Z,3.60
2018-11-21T11:13:23.040Z,3.60
2018-11-21T11:16:13.512Z,3.60
2018-11-21T11:19:06.880Z,3.60
2018-11-21T11:22:13.231Z,3.60
2018-11-21T11:25:06.740Z,3.60
2018-11-21T11:28:03.748Z,3.60
2018-11-21T11:30:54.267Z,3.60
2018-11-21T11:33:40.468Z,3.60
2018-11-21T11:36:29.659Z,3.60
2018-11-21T11:39:15.730Z,3.60
2018-11-21T11:42:02.183Z,3.70
2018-11-21T11:44:41.845Z,3.60
2018-11-21T11:47:28.082Z,3.60
2018-11-21T11:50:15.119Z,3.60
2018-11-21T11:52:57.712Z,3.60
2018-11-21T11:55:44.306Z,3.60
2018-11-21T11:58:31.116Z,3.60
2018-11-21T12:01:17.245Z,3.60
2018-11-21T12:04:07.429Z,3.60
2018-11-21T12:06:51.291Z,3.60
2018-11-21T12:09:37.649Z,3.70
2018-11-21T12:12:43.847Z,3.60
2018-11-21T12:15:31.450Z,3.60
2018-11-21T12:18:26.481Z,3.60
2018-11-21T12:21:19.162Z,3.60
2018-11-21T12:24:05.761Z,3.70
2018-11-21T12:27:11.641Z,3.80
2018-11-21T12:30:01.322Z,3.70
2018-11-21T12:32:47.729Z,3.70
2018-11-21T12:35:33.889Z,3.70
2018-11-21T12:38:21.496Z,3.60
2018-11-21T12:41:15.177Z,3.60
2018-11-21T12:44:01.110Z,3.60
2018-11-21T12:46:57.843Z,3.70
2018-11-21T12:49:44.120Z,3.70
2018-11-21T12:52:29.886Z,3.70
2018-11-21T12:55:19.377Z,3.70
2018-11-21T12:58:25.044Z,3.70
2018-11-21T13:01:10.163Z,3.70
2018-11-21T13:03:56.707Z,3.70
2018-11-21T13:06:42.952Z,3.60
2018-11-21T13:09:29.992Z,3.60
2018-11-21T13:12:23.589Z,3.60
2018-11-21T13:15:10.020Z,3.70
2018-11-21T13:17:56.199Z,3.70
2018-11-21T13:20:52.852Z,3.70
2018-11-21T13:23:39.360Z,3.80
2018-11-21T13:26:26.964Z,3.90
2018-11-21T13:29:17.286Z,3.90
2018-11-21T13:31:59.270Z,3.90
2018-11-21T13:34:49.436Z,3.90
2018-11-21T13:37:35.837Z,3.90
2018-11-21T13:40:25.688Z,3.90
2018-11-21T13:43:09.224Z,3.80
2018-11-21T13:45:55.603Z,3.80
2018-11-21T13:48:55.716Z,3.80
2018-11-21T13:51:45.997Z,3.80
2018-11-21T13:54:33.795Z,3.80
2018-11-21T13:57:02.319Z,3.80
2018-11-21T13:59:30.849Z,3.80
2018-11-21T14:01:59.367Z,3.80
2018-11-21T14:04:27.854Z,3.80
2018-11-21T14:06:56.350Z,3.90
2018-11-21T14:09:24.863Z,3.90
2018-11-21T14:11:53.357Z,3.90
2018-11-21T14:14:21.769Z,3.80
2018-11-21T14:16:50.259Z,3.80
2018-11-21T14:19:18.727Z,3.80
2018-11-21T14:21:47.193Z,3.80
2018-11-21T14:24:15.606Z,3.80
2018-11-21T14:26:44.356Z,3.80
2018-11-21T14:29:12.906Z,3.80
2018-11-21T14:31:41.332Z,3.80
2018-11-21T14:34:10.482Z,3.80
2018-11-21T14:36:39.421Z,3.80
2018-11-21T14:39:12.832Z,3.80
2018-11-21T14:41:42.808Z,3.80
2018-11-21T14:44:11.535Z,3.80
2018-11-21T14:46:41.046Z,3.90
2018-11-21T14:49:10.000Z,3.80
2018-11-21T14:51:38.907Z,3.90
2018-11-21T14:54:13.465Z,4.00
2018-11-21T14:56:42.099Z,3.90
2018-11-21T14:59:10.575Z,3.90
2018-11-21T15:01:39.563Z,3.90
2018-11-21T15:04:08.531Z,3.90
2018-11-21T15:06:36.963Z,3.90
2018-11-21T15:09:16.869Z,3.90
2018-11-21T15:11:45.355Z,3.90
2018-11-21T15:14:13.926Z,3.90
2018-11-21T15:16:42.487Z,3.90
2018-11-21T15:19:10.977Z,4.00
2018-11-21T15:21:39.866Z,3.90
2018-11-21T15:24:08.298Z,3.90
2018-11-21T15:26:37.328Z,4.00
2018-11-21T15:29:06.250Z,4.00
2018-11-21T15:31:35.143Z,4.00
2018-11-21T15:34:03.569Z,4.10
2018-11-21T15:36:32.008Z,4.00
2018-11-21T15:39:00.445Z,3.90
2018-11-21T15:41:28.983Z,3.90
2018-11-21T15:43:57.464Z,3.90
2018-11-21T15:46:25.960Z,3.90
2018-11-21T15:48:54.489Z,3.90
2018-11-21T15:51:23.034Z,3.90
2018-11-21T15:53:51.652Z,3.90
2018-11-21T15:56:20.149Z,3.80
2018-11-21T15:58:49.528Z,3.90
2018-11-21T16:01:18.232Z,4.00
2018-11-21T16:03:46.692Z,4.00
2018-11-21T16:06:15.285Z,3.90
2018-11-21T16:08:43.751Z,3.90
2018-11-21T16:11:12.242Z,3.90
2018-11-21T16:13:40.854Z,4.00
2018-11-21T16:16:09.279Z,4.10
2018-11-21T16:18:37.714Z,4.10
2018-11-21T16:21:06.345Z,4.10
2018-11-21T16:23:34.955Z,4.00
2018-11-21T16:26:03.413Z,4.10
2018-11-21T16:28:31.902Z,4.10
2018-11-21T16:31:00.378Z,3.90
2018-11-21T16:33:29.665Z,3.90
2018-11-21T16:35:58.195Z,3.90
2018-11-21T16:38:26.739Z,3.90
2018-11-21T16:40:55.252Z,3.80
2018-11-21T16:43:23.712Z,3.80
2018-11-21T16:45:53.895Z,3.90
2018-11-21T16:48:22.360Z,4.00
2018-11-21T16:50:51.277Z,3.90
2018-11-21T16:53:19.786Z,3.90
2018-11-21T16:55:48.215Z,3.90
2018-11-21T16:58:16.661Z,3.90
2018-11-21T17:00:45.144Z,4.00
2018-11-21T17:03:13.632Z,4.00
2018-11-21T17:05:42.060Z,4.00
2018-11-21T17:08:10.558Z,4.00
2018-11-21T17:10:39.410Z,3.90
2018-11-21T17:13:08.328Z,4.00
2018-11-21T17:15:37.508Z,4.00
2018-11-21T17:18:15.412Z,4.00
2018-11-21T17:20:44.790Z,3.90
2018-11-21T17:23:13.230Z,3.90
2018-11-21T17:25:42.267Z,3.90
2018-11-21T17:28:10.733Z,3.90
2018-11-21T17:30:39.467Z,3.90
2018-11-21T17:33:07.911Z,3.90
2018-11-21T17:35:36.496Z,3.90
2018-11-21T17:38:05.033Z,3.90
2018-11-21T17:40:41.185Z,3.90
2018-11-21T17:43:09.612Z,3.90
2018-11-21T17:45:38.826Z,3.90
2018-11-21T17:48:07.618Z,3.90
2018-11-21T17:50:36.079Z,3.90
2018-11-21T17:53:05.753Z,3.80
2018-11-21T17:55:35.789Z,3.90
2018-11-21T17:58:04.287Z,3.90
2018-11-21T18:00:32.983Z,3.90
2018-11-21T18:03:01.445Z,3.90
2018-11-21T18:05:31.800Z,3.90
2018-11-21T18:08:00.230Z,3.80
2018-11-21T18:10:30.500Z,3.80
2018-11-21T18:12:58.950Z,3.70
2018-11-21T18:15:27.493Z,3.70
2018-11-21T18:17:55.953Z,3.70
2018-11-21T18:20:24.465Z,3.70
2018-11-21T18:22:53.402Z,3.70
2018-11-21T18:25:26.882Z,3.70
2018-11-21T18:27:55.461Z,3.70
2018-11-21T18:30:24.695Z,3.70
2018-11-21T18:32:53.135Z,3.70
2018-11-21T18:35:22.646Z,3.70
2018-11-21T18:37:51.729Z,3.70
2018-11-21T18:40:24.727Z,3.60
2018-11-21T18:42:53.558Z,3.60
2018-11-21T18:45:24.831Z,3.60
2018-11-21T18:47:53.324Z,3.60
2018-11-21T18:50:22.097Z,3.60
2018-11-21T18:52:52.260Z,3.60
2018-11-21T18:55:22.915Z,3.60
2018-11-21T18:58:21.634Z,3.60
2018-11-21T19:00:51.826Z,3.60
2018-11-21T19:03:20.601Z,3.70
2018-11-21T19:05:49.111Z,3.60
2018-11-21T19:08:17.551Z,3.60
2018-11-21T19:10:46.008Z,3.70
2018-11-21T19:13:14.483Z,3.80
2018-11-21T19:15:42.920Z,3.80
2018-11-21T19:18:11.721Z,3.70
2018-11-21T19:20:40.211Z,3.70
2018-11-21T19:23:08.682Z,3.60
2018-11-21T19:25:37.159Z,3.60
2018-11-21T19:28:06.547Z,3.60
2018-11-21T19:30:35.468Z,3.60
2018-11-21T19:33:03.900Z,3.60
2018-11-21T19:35:32.738Z,3.60
2018-11-21T19:38:01.227Z,3.50
2018-11-21T19:40:29.995Z,3.50
2018-11-21T19:42:58.516Z,3.60
2018-11-21T19:45:29.768Z,3.50
2018-11-21T19:47:58.581Z,3.50
2018-11-21T19:50:27.398Z,3.50
2018-11-21T19:52:55.889Z,3.50
2018-11-21T19:55:26.147Z,3.50
2018-11-21T19:57:54.654Z,3.60
2018-11-21T20:00:24.655Z,3.60
2018-11-21T20:02:53.439Z,3.70
2018-11-21T20:05:22.363Z,3.70
2018-11-21T20:07:50.983Z,3.60
2018-11-21T20:10:20.547Z,3.60
2018-11-21T20:12:49.377Z,3.60
2018-11-21T20:15:19.562Z,3.50
2018-11-21T20:17:49.827Z,3.50
2018-11-21T20:20:19.264Z,3.50
2018-11-21T20:22:48.352Z,3.60
2018-11-21T20:25:18.085Z,3.60
2018-11-21T20:27:46.566Z,3.60
2018-11-21T20:30:17.542Z,3.60
2018-11-21T20:32:46.024Z,3.60
2018-11-21T20:35:15.280Z,3.60
2018-11-21T20:37:44.377Z,3.60
2018-11-21T20:40:15.675Z,3.60
2018-11-21T20:42:44.516Z,3.60
2018-11-21T20:45:15.842Z,3.50
2018-11-21T20:47:44.597Z,3.60
2018-11-21T20:50:13.044Z,3.60
2018-11-21T20:52:42.314Z,3.60
2018-11-21T20:55:11.755Z,3.60
2018-11-21T20:57:40.701Z,3.60
2018-11-21T21:00:13.817Z,3.60
2018-11-21T21:02:42.293Z,3.50
2018-11-21T21:05:12.218Z,3.50
2018-11-21T21:07:41.343Z,3.50
2018-11-21T21:10:12.175Z,3.50
2018-11-21T21:12:40.661Z,3.40
2018-11-21T21:15:10.231Z,3.40
2018-11-21T21:17:39.449Z,3.40
2018-11-21T21:20:09.932Z,3.40
2018-11-21T21:22:38.386Z,3.50
2018-11-21T21:25:08.950Z,3.60
2018-11-21T21:27:37.455Z,3.60
2018-11-21T21:30:09.481Z,3.50
2018-11-21T21:32:37.951Z,3.50
2018-11-21T21:35:06.893Z,3.50
2018-11-21T21:37:35.582Z,3.50
2018-11-21T21:40:04.321Z,3.40
2018-11-21T21:42:32.773Z,3.40
2018-11-21T21:45:01.253Z,3.40
2018-11-21T21:47:29.740Z,3.40
2018-11-21T21:50:03.002Z,3.40
2018-11-21T21:52:32.096Z,3.40
2018-11-21T21:55:00.560Z,3.40
2018-11-21T21:57:29.251Z,3.40
2018-11-21T21:59:57.796Z,3.40
2018-11-21T22:02:26.997Z,3.40
2018-11-21T22:04:55.742Z,3.40
2018-11-21T22:07:24.286Z,3.40
2018-11-21T22:09:53.451Z,3.40
2018-11-21T22:12:21.907Z,3.40
2018-11-21T22:14:50.547Z,3.30
2018-11-21T22:17:19.073Z,3.30
2018-11-21T22:19:47.518Z,3.50
2018-11-21T22:22:15.935Z,3.60
2018-11-21T22:24:44.415Z,3.50
2018-11-21T22:27:12.921Z,3.40
2018-11-21T22:29:41.325Z,3.40
2018-11-21T22:32:09.821Z,3.40
2018-11-21T22:34:38.282Z,3.40
2018-11-21T22:37:06.697Z,3.40
2018-11-21T22:39:35.157Z,3.50
2018-11-21T22:42:03.582Z,3.50
2018-11-21T22:44:32.033Z,3.50
2018-11-21T22:47:00.470Z,3.50
2018-11-21T22:49:29.303Z,3.60
2018-11-21T22:51:57.761Z,3.60
2018-11-21T22:54:26.219Z,3.50
2018-11-21T22:56:54.732Z,3.50
2018-11-21T22:59:23.210Z,3.50
2018-11-21T23:01:51.682Z,3.40
2018-11-21T23:04:20.168Z,3.40
2018-11-21T23:06:48.601Z,3.40
2018-11-21T23:09:17.097Z,3.40
2018-11-21T23:11:45.910Z,3.40
2018-11-21T23:14:14.374Z,3.40
2018-11-21T23:16:43.164Z,3.40
2018-11-21T23:19:11.960Z,3.40
2018-11-21T23:21:40.456Z,3.40
2018-11-21T23:24:08.913Z,3.40
2018-11-21T23:26:37.367Z,3.40
2018-11-21T23:29:05.808Z,3.40
2018-11-21T23:31:34.207Z,3.30
2018-11-21T23:34:03.045Z,3.30
2018-11-21T23:36:31.876Z,3.30
2018-11-21T23:39:00.275Z,3.40
2018-11-21T23:41:28.738Z,3.40
2018-11-21T23:43:57.140Z,3.40
2018-11-21T23:46:25.663Z,3.40
2018-11-21T23:48:54.055Z,3.40
2018-11-21T23:51:22.461Z,3.30
2018-11-21T23:53:50.941Z,3.30
2018-11-21T23:56:20.831Z,3.30
2018-11-21T23:58:48.283Z,3.30
